sensor_id;sensor_type;location;lat;lon;timestamp;temperature;humidity
42913;DHT22;50720;54.324;18.558;2022-12-20T00:02:15;1.80;99.90
42913;DHT22;50720;54.324;18.558;2022-12-20T00:04:45;1.90;99.90
42913;DHT22;50720;54.324;18.558;2022-12-20T00:07:15;1.90;99.90
42913;DHT22;50720;54.324;18.558;2022-12-20T00:09:44;1.90;99.90
42913;DHT22;50720;54.324;18.558;2022-12-20T00:12:14;2.00;99.90
42913;DHT22;50720;54.324;18.558;2022-12-20T00:14:44;2.00;99.90
42913;DHT22;50720;54.324;18.558;2022-12-20T00:17:16;2.10;99.90
42913;DHT22;50720;54.324;18.558;2022-12-20T00:19:45;2.10;99.90
42913;DHT22;50720;54.324;18.558;2022-12-20T00:22:15;2.10;99.90
42913;DHT22;50720;54.324;18.558;2022-12-20T00:24:45;2.20;99.90
42913;DHT22;50720;54.324;18.558;2022-12-20T00:27:14;2.20;99.90
42913;DHT22;50720;54.324;18.558;2022-12-20T00:29:44;2.20;99.90
42913;DHT22;50720;54.324;18.558;2022-12-20T00:32:15;2.30;99.90
42913;DHT22;50720;54.324;18.558;2022-12-20T00:34:44;2.30;99.90
42913;DHT22;50720;54.324;18.558;2022-12-20T00:37:14;2.30;99.90
42913;DHT22;50720;54.324;18.558;2022-12-20T00:39:43;2.40;99.90
42913;DHT22;50720;54.324;18.558;2022-12-20T00:42:14;2.40;99.90
42913;DHT22;50720;54.324;18.558;2022-12-20T00:44:43;2.40;99.90
42913;DHT22;50720;54.324;18.558;2022-12-20T00:47:14;2.50;99.90
42913;DHT22;50720;54.324;18.558;2022-12-20T00:49:44;2.50;99.90
42913;DHT22;50720;54.324;18.558;2022-12-20T00:52:13;2.60;99.90
42913;DHT22;50720;54.324;18.558;2022-12-20T00:54:43;2.60;99.90
42913;DHT22;50720;54.324;18.558;2022-12-20T00:57:12;2.60;99.90
42913;DHT22;50720;54.324;18.558;2022-12-20T00:59:42;2.60;99.90
42913;DHT22;50720;54.324;18.558;2022-12-20T01:02:12;2.70;99.90
42913;DHT22;50720;54.324;18.558;2022-12-20T01:04:43;2.70;99.90
42913;DHT22;50720;54.324;18.558;2022-12-20T01:07:12;2.70;99.90
42913;DHT22;50720;54.324;18.558;2022-12-20T01:09:42;2.70;99.90
42913;DHT22;50720;54.324;18.558;2022-12-20T01:12:11;2.70;99.90
42913;DHT22;50720;54.324;18.558;2022-12-20T01:14:41;2.70;99.90
42913;DHT22;50720;54.324;18.558;2022-12-20T01:17:10;2.70;99.90
42913;DHT22;50720;54.324;18.558;2022-12-20T01:19:42;2.80;99.90
42913;DHT22;50720;54.324;18.558;2022-12-20T01:22:11;2.80;99.90
42913;DHT22;50720;54.324;18.558;2022-12-20T01:24:40;2.90;99.90
42913;DHT22;50720;54.324;18.558;2022-12-20T01:27:11;2.80;99.90
42913;DHT22;50720;54.324;18.558;2022-12-20T01:29:40;2.80;99.90
42913;DHT22;50720;54.324;18.558;2022-12-20T01:32:10;2.80;99.90
42913;DHT22;50720;54.324;18.558;2022-12-20T01:34:40;2.90;99.90
42913;DHT22;50720;54.324;18.558;2022-12-20T01:37:11;2.80;99.90
42913;DHT22;50720;54.324;18.558;2022-12-20T01:39:40;2.90;99.90
42913;DHT22;50720;54.324;18.558;2022-12-20T01:42:13;2.90;99.90
42913;DHT22;50720;54.324;18.558;2022-12-20T01:44:58;2.90;99.90
42913;DHT22;50720;54.324;18.558;2022-12-20T01:47:31;2.80;99.90
42913;DHT22;50720;54.324;18.558;2022-12-20T01:50:03;2.80;99.90
42913;DHT22;50720;54.324;18.558;2022-12-20T01:52:36;2.90;99.90
42913;DHT22;50720;54.324;18.558;2022-12-20T01:55:11;2.90;99.90
42913;DHT22;50720;54.324;18.558;2022-12-20T01:57:44;2.90;99.90
42913;DHT22;50720;54.324;18.558;2022-12-20T02:00:15;2.90;99.90
42913;DHT22;50720;54.324;18.558;2022-12-20T02:02:46;2.90;99.90
42913;DHT22;50720;54.324;18.558;2022-12-20T02:05:18;3.00;99.90
42913;DHT22;50720;54.324;18.558;2022-12-20T02:07:51;3.00;99.90
42913;DHT22;50720;54.324;18.558;2022-12-20T02:10:23;3.00;99.90
42913;DHT22;50720;54.324;18.558;2022-12-20T02:13:02;3.10;99.90
42913;DHT22;50720;54.324;18.558;2022-12-20T02:15:41;3.10;99.90
42913;DHT22;50720;54.324;18.558;2022-12-20T02:18:20;3.10;99.90
42913;DHT22;50720;54.324;18.558;2022-12-20T02:21:16;3.20;99.90
42913;DHT22;50720;54.324;18.558;2022-12-20T02:30:10;3.10;99.90
42913;DHT22;50720;54.324;18.558;2022-12-20T02:32:47;3.10;99.90
42913;DHT22;50720;54.324;18.558;2022-12-20T02:35:21;3.20;99.90
42913;DHT22;50720;54.324;18.558;2022-12-20T02:37:53;3.20;99.90
42913;DHT22;50720;54.324;18.558;2022-12-20T02:40:26;3.20;99.90
42913;DHT22;50720;54.324;18.558;2022-12-20T02:42:59;3.30;99.90
42913;DHT22;50720;54.324;18.558;2022-12-20T02:45:33;3.30;99.90
42913;DHT22;50720;54.324;18.558;2022-12-20T02:48:05;3.30;99.90
42913;DHT22;50720;54.324;18.558;2022-12-20T02:50:38;3.30;99.90
42913;DHT22;50720;54.324;18.558;2022-12-20T02:53:11;3.40;99.90
42913;DHT22;50720;54.324;18.558;2022-12-20T02:55:45;3.40;99.90
42913;DHT22;50720;54.324;18.558;2022-12-20T02:58:22;3.40;99.90
42913;DHT22;50720;54.324;18.558;2022-12-20T03:00:58;3.50;99.90
42913;DHT22;50720;54.324;18.558;2022-12-20T03:03:32;3.50;99.90
42913;DHT22;50720;54.324;18.558;2022-12-20T03:06:02;3.50;99.90
42913;DHT22;50720;54.324;18.558;2022-12-20T03:08:31;3.60;99.90
42913;DHT22;50720;54.324;18.558;2022-12-20T03:11:01;3.50;99.90
42913;DHT22;50720;54.324;18.558;2022-12-20T03:13:31;3.60;99.90
42913;DHT22;50720;54.324;18.558;2022-12-20T03:16:02;3.60;99.90
42913;DHT22;50720;54.324;18.558;2022-12-20T03:18:32;3.60;99.90
42913;DHT22;50720;54.324;18.558;2022-12-20T03:21:02;3.60;99.90
42913;DHT22;50720;54.324;18.558;2022-12-20T03:23:31;3.60;99.90
42913;DHT22;50720;54.324;18.558;2022-12-20T03:26:01;3.60;99.90
42913;DHT22;50720;54.324;18.558;2022-12-20T03:28:31;3.60;99.90
42913;DHT22;50720;54.324;18.558;2022-12-20T03:31:03;3.60;99.90
42913;DHT22;50720;54.324;18.558;2022-12-20T03:33:32;3.70;99.90
42913;DHT22;50720;54.324;18.558;2022-12-20T03:36:02;3.60;99.90
42913;DHT22;50720;54.324;18.558;2022-12-20T03:38:32;3.60;99.90
42913;DHT22;50720;54.324;18.558;2022-12-20T03:41:01;3.60;99.90
42913;DHT22;50720;54.324;18.558;2022-12-20T03:43:31;3.60;99.90
42913;DHT22;50720;54.324;18.558;2022-12-20T03:46:02;3.70;99.90
42913;DHT22;50720;54.324;18.558;2022-12-20T03:48:32;3.70;99.90
42913;DHT22;50720;54.324;18.558;2022-12-20T03:51:01;3.70;99.90
42913;DHT22;50720;54.324;18.558;2022-12-20T03:53:31;3.80;99.90
42913;DHT22;50720;54.324;18.558;2022-12-20T03:56:01;3.80;99.90
42913;DHT22;50720;54.324;18.558;2022-12-20T03:58:30;3.70;99.90
42913;DHT22;50720;54.324;18.558;2022-12-20T04:01:07;3.80;99.90
42913;DHT22;50720;54.324;18.558;2022-12-20T04:03:43;3.90;99.90
42913;DHT22;50720;54.324;18.558;2022-12-20T04:06:14;3.80;99.90
42913;DHT22;50720;54.324;18.558;2022-12-20T04:08:44;3.80;99.90
42913;DHT22;50720;54.324;18.558;2022-12-20T04:11:14;3.80;99.90
42913;DHT22;50720;54.324;18.558;2022-12-20T04:13:44;3.80;99.90
42913;DHT22;50720;54.324;18.558;2022-12-20T04:16:17;3.90;99.90
42913;DHT22;50720;54.324;18.558;2022-12-20T04:18:47;3.80;99.90
42913;DHT22;50720;54.324;18.558;2022-12-20T04:21:21;3.90;99.90
42913;DHT22;50720;54.324;18.558;2022-12-20T04:23:51;3.90;99.90
42913;DHT22;50720;54.324;18.558;2022-12-20T04:26:21;3.90;99.90
42913;DHT22;50720;54.324;18.558;2022-12-20T04:28:50;3.90;99.90
42913;DHT22;50720;54.324;18.558;2022-12-20T04:31:22;3.90;99.90
42913;DHT22;50720;54.324;18.558;2022-12-20T04:33:52;3.90;99.90
42913;DHT22;50720;54.324;18.558;2022-12-20T04:36:22;3.90;99.90
42913;DHT22;50720;54.324;18.558;2022-12-20T04:38:51;4.00;99.90
42913;DHT22;50720;54.324;18.558;2022-12-20T04:41:22;4.00;99.90
42913;DHT22;50720;54.324;18.558;2022-12-20T04:43:54;4.00;99.90
42913;DHT22;50720;54.324;18.558;2022-12-20T04:46:26;4.00;99.90
42913;DHT22;50720;54.324;18.558;2022-12-20T04:48:55;4.00;99.90
42913;DHT22;50720;54.324;18.558;2022-12-20T04:51:26;4.10;99.90
42913;DHT22;50720;54.324;18.558;2022-12-20T04:53:56;4.20;99.90
42913;DHT22;50720;54.324;18.558;2022-12-20T04:56:27;4.10;99.90
42913;DHT22;50720;54.324;18.558;2022-12-20T04:58:57;4.20;99.90
42913;DHT22;50720;54.324;18.558;2022-12-20T05:01:28;4.20;99.90
42913;DHT22;50720;54.324;18.558;2022-12-20T05:03:58;4.20;99.90
42913;DHT22;50720;54.324;18.558;2022-12-20T05:06:28;4.20;99.90
42913;DHT22;50720;54.324;18.558;2022-12-20T05:08:57;4.20;99.90
42913;DHT22;50720;54.324;18.558;2022-12-20T05:11:27;4.30;99.90
42913;DHT22;50720;54.324;18.558;2022-12-20T05:13:57;4.30;99.90
42913;DHT22;50720;54.324;18.558;2022-12-20T05:16:28;4.40;99.90
42913;DHT22;50720;54.324;18.558;2022-12-20T05:18:58;4.40;99.90
42913;DHT22;50720;54.324;18.558;2022-12-20T05:21:30;4.40;99.90
42913;DHT22;50720;54.324;18.558;2022-12-20T05:24:17;4.50;99.90
42913;DHT22;50720;54.324;18.558;2022-12-20T05:27:04;4.50;99.90
42913;DHT22;50720;54.324;18.558;2022-12-20T05:29:33;4.50;99.90
42913;DHT22;50720;54.324;18.558;2022-12-20T05:32:05;4.50;99.90
42913;DHT22;50720;54.324;18.558;2022-12-20T05:34:34;4.40;99.90
42913;DHT22;50720;54.324;18.558;2022-12-20T05:37:03;4.40;99.90
42913;DHT22;50720;54.324;18.558;2022-12-20T05:39:33;4.40;99.90
42913;DHT22;50720;54.324;18.558;2022-12-20T05:42:03;4.40;99.90
42913;DHT22;50720;54.324;18.558;2022-12-20T05:44:32;4.30;99.90
42913;DHT22;50720;54.324;18.558;2022-12-20T05:47:04;4.30;99.90
42913;DHT22;50720;54.324;18.558;2022-12-20T05:49:33;4.30;99.90
42913;DHT22;50720;54.324;18.558;2022-12-20T05:52:03;4.30;99.90
42913;DHT22;50720;54.324;18.558;2022-12-20T05:54:33;4.30;99.90
42913;DHT22;50720;54.324;18.558;2022-12-20T05:57:03;4.30;99.90
42913;DHT22;50720;54.324;18.558;2022-12-20T05:59:32;4.30;99.90
42913;DHT22;50720;54.324;18.558;2022-12-20T06:02:03;4.30;99.90
42913;DHT22;50720;54.324;18.558;2022-12-20T06:04:33;4.30;99.90
42913;DHT22;50720;54.324;18.558;2022-12-20T06:07:03;4.30;99.90
42913;DHT22;50720;54.324;18.558;2022-12-20T06:09:33;4.30;99.90
42913;DHT22;50720;54.324;18.558;2022-12-20T06:12:03;4.20;99.90
42913;DHT22;50720;54.324;18.558;2022-12-20T06:14:32;4.20;99.90
42913;DHT22;50720;54.324;18.558;2022-12-20T06:17:03;4.20;99.90
42913;DHT22;50720;54.324;18.558;2022-12-20T06:19:33;4.20;99.90
42913;DHT22;50720;54.324;18.558;2022-12-20T06:22:02;4.10;99.90
42913;DHT22;50720;54.324;18.558;2022-12-20T06:24:32;4.10;99.90
42913;DHT22;50720;54.324;18.558;2022-12-20T06:27:02;4.10;99.90
42913;DHT22;50720;54.324;18.558;2022-12-20T06:29:33;4.20;99.90
42913;DHT22;50720;54.324;18.558;2022-12-20T06:32:06;4.10;99.90
42913;DHT22;50720;54.324;18.558;2022-12-20T06:34:35;4.20;99.90
42913;DHT22;50720;54.324;18.558;2022-12-20T06:37:05;4.20;99.90
42913;DHT22;50720;54.324;18.558;2022-12-20T06:39:35;4.20;99.90
42913;DHT22;50720;54.324;18.558;2022-12-20T06:42:05;4.10;99.90
42913;DHT22;50720;54.324;18.558;2022-12-20T06:44:35;4.10;99.90
42913;DHT22;50720;54.324;18.558;2022-12-20T06:47:06;4.10;99.90
42913;DHT22;50720;54.324;18.558;2022-12-20T06:49:36;4.10;99.90
42913;DHT22;50720;54.324;18.558;2022-12-20T06:52:06;4.10;99.90
42913;DHT22;50720;54.324;18.558;2022-12-20T06:54:35;4.20;99.90
42913;DHT22;50720;54.324;18.558;2022-12-20T06:57:05;4.20;99.90
42913;DHT22;50720;54.324;18.558;2022-12-20T06:59:34;4.20;99.90
42913;DHT22;50720;54.324;18.558;2022-12-20T07:02:05;4.20;99.90
42913;DHT22;50720;54.324;18.558;2022-12-20T07:04:35;4.20;99.90
42913;DHT22;50720;54.324;18.558;2022-12-20T07:07:06;4.20;99.90
42913;DHT22;50720;54.324;18.558;2022-12-20T07:09:35;4.20;99.90
42913;DHT22;50720;54.324;18.558;2022-12-20T07:12:08;4.10;99.90
42913;DHT22;50720;54.324;18.558;2022-12-20T07:14:38;4.20;99.90
42913;DHT22;50720;54.324;18.558;2022-12-20T07:17:11;4.20;99.90
42913;DHT22;50720;54.324;18.558;2022-12-20T07:19:40;4.20;99.90
42913;DHT22;50720;54.324;18.558;2022-12-20T07:22:17;4.20;99.90
42913;DHT22;50720;54.324;18.558;2022-12-20T07:24:47;4.10;99.90
42913;DHT22;50720;54.324;18.558;2022-12-20T07:27:17;4.10;99.90
42913;DHT22;50720;54.324;18.558;2022-12-20T07:29:47;4.10;99.90
42913;DHT22;50720;54.324;18.558;2022-12-20T07:32:18;4.10;99.90
42913;DHT22;50720;54.324;18.558;2022-12-20T07:34:47;4.10;99.90
42913;DHT22;50720;54.324;18.558;2022-12-20T07:37:17;4.10;99.90
42913;DHT22;50720;54.324;18.558;2022-12-20T07:39:46;4.10;99.90
42913;DHT22;50720;54.324;18.558;2022-12-20T07:42:16;4.10;99.90
42913;DHT22;50720;54.324;18.558;2022-12-20T07:44:46;4.10;99.90
42913;DHT22;50720;54.324;18.558;2022-12-20T07:47:16;4.10;99.90
42913;DHT22;50720;54.324;18.558;2022-12-20T07:49:46;4.10;99.90
42913;DHT22;50720;54.324;18.558;2022-12-20T07:52:20;4.10;99.90
42913;DHT22;50720;54.324;18.558;2022-12-20T07:54:55;4.10;99.90
42913;DHT22;50720;54.324;18.558;2022-12-20T07:57:29;4.10;99.90
42913;DHT22;50720;54.324;18.558;2022-12-20T08:00:01;4.20;99.90
42913;DHT22;50720;54.324;18.558;2022-12-20T08:02:36;4.20;99.90
42913;DHT22;50720;54.324;18.558;2022-12-20T08:05:10;4.20;99.90
42913;DHT22;50720;54.324;18.558;2022-12-20T08:07:41;4.20;99.90
42913;DHT22;50720;54.324;18.558;2022-12-20T08:10:12;4.20;99.90
42913;DHT22;50720;54.324;18.558;2022-12-20T08:12:43;4.20;99.90
42913;DHT22;50720;54.324;18.558;2022-12-20T08:15:13;4.20;99.90
42913;DHT22;50720;54.324;18.558;2022-12-20T08:17:43;4.30;99.90
42913;DHT22;50720;54.324;18.558;2022-12-20T08:20:15;4.30;99.90
42913;DHT22;50720;54.324;18.558;2022-12-20T08:22:44;4.30;99.90
42913;DHT22;50720;54.324;18.558;2022-12-20T08:25:14;4.30;99.90
42913;DHT22;50720;54.324;18.558;2022-12-20T08:27:44;4.30;99.90
42913;DHT22;50720;54.324;18.558;2022-12-20T08:30:14;4.40;99.90
42913;DHT22;50720;54.324;18.558;2022-12-20T08:32:44;4.40;99.90
42913;DHT22;50720;54.324;18.558;2022-12-20T08:35:15;4.30;99.90
42913;DHT22;50720;54.324;18.558;2022-12-20T08:37:44;4.40;99.90
42913;DHT22;50720;54.324;18.558;2022-12-20T08:40:14;4.40;99.90
42913;DHT22;50720;54.324;18.558;2022-12-20T08:42:44;4.30;99.90
42913;DHT22;50720;54.324;18.558;2022-12-20T08:45:14;4.40;99.90
42913;DHT22;50720;54.324;18.558;2022-12-20T08:47:46;4.40;99.90
42913;DHT22;50720;54.324;18.558;2022-12-20T08:50:17;4.40;99.90
42913;DHT22;50720;54.324;18.558;2022-12-20T08:52:47;4.40;99.90
42913;DHT22;50720;54.324;18.558;2022-12-20T08:55:16;4.40;99.90
42913;DHT22;50720;54.324;18.558;2022-12-20T08:57:54;4.40;99.90
42913;DHT22;50720;54.324;18.558;2022-12-20T09:00:23;4.40;99.90
42913;DHT22;50720;54.324;18.558;2022-12-20T09:02:54;4.40;99.90
42913;DHT22;50720;54.324;18.558;2022-12-20T09:05:25;4.40;99.90
42913;DHT22;50720;54.324;18.558;2022-12-20T09:07:55;4.50;99.90
42913;DHT22;50720;54.324;18.558;2022-12-20T09:10:24;4.50;99.90
42913;DHT22;50720;54.324;18.558;2022-12-20T09:12:54;4.50;99.90
42913;DHT22;50720;54.324;18.558;2022-12-20T09:15:23;4.60;99.90
42913;DHT22;50720;54.324;18.558;2022-12-20T09:17:55;4.60;99.90
42913;DHT22;50720;54.324;18.558;2022-12-20T09:20:27;4.60;99.90
42913;DHT22;50720;54.324;18.558;2022-12-20T09:22:57;4.60;99.90
42913;DHT22;50720;54.324;18.558;2022-12-20T09:25:27;4.50;99.90
42913;DHT22;50720;54.324;18.558;2022-12-20T09:27:57;4.60;99.90
42913;DHT22;50720;54.324;18.558;2022-12-20T09:30:26;4.60;99.90
42913;DHT22;50720;54.324;18.558;2022-12-20T09:32:56;4.60;99.90
42913;DHT22;50720;54.324;18.558;2022-12-20T09:35:43;4.50;99.90
42913;DHT22;50720;54.324;18.558;2022-12-20T09:38:13;4.50;99.90
42913;DHT22;50720;54.324;18.558;2022-12-20T09:40:45;4.50;99.90
42913;DHT22;50720;54.324;18.558;2022-12-20T09:43:16;4.50;99.90
42913;DHT22;50720;54.324;18.558;2022-12-20T09:45:47;4.50;99.90
42913;DHT22;50720;54.324;18.558;2022-12-20T09:48:21;4.50;99.90
42913;DHT22;50720;54.324;18.558;2022-12-20T09:51:00;4.50;99.90
42913;DHT22;50720;54.324;18.558;2022-12-20T09:53:43;4.50;99.90
42913;DHT22;50720;54.324;18.558;2022-12-20T09:56:23;4.40;99.90
42913;DHT22;50720;54.324;18.558;2022-12-20T09:59:04;4.40;99.90
42913;DHT22;50720;54.324;18.558;2022-12-20T10:01:34;4.40;99.90
42913;DHT22;50720;54.324;18.558;2022-12-20T10:04:21;4.40;99.90
42913;DHT22;50720;54.324;18.558;2022-12-20T10:07:09;4.40;99.90
42913;DHT22;50720;54.324;18.558;2022-12-20T10:10:08;4.30;99.90
42913;DHT22;50720;54.324;18.558;2022-12-20T10:12:47;4.30;99.90
42913;DHT22;50720;54.324;18.558;2022-12-20T10:15:22;4.40;99.90
42913;DHT22;50720;54.324;18.558;2022-12-20T10:18:13;4.40;99.90
42913;DHT22;50720;54.324;18.558;2022-12-20T10:20:56;4.40;99.90
42913;DHT22;50720;54.324;18.558;2022-12-20T10:23:32;4.40;99.90
42913;DHT22;50720;54.324;18.558;2022-12-20T10:26:08;4.50;99.90
42913;DHT22;50720;54.324;18.558;2022-12-20T10:28:37;4.50;99.90
42913;DHT22;50720;54.324;18.558;2022-12-20T10:31:11;4.60;99.90
42913;DHT22;50720;54.324;18.558;2022-12-20T10:33:42;4.60;99.90
42913;DHT22;50720;54.324;18.558;2022-12-20T10:36:20;4.60;99.90
42913;DHT22;50720;54.324;18.558;2022-12-20T10:38:53;4.60;99.90
42913;DHT22;50720;54.324;18.558;2022-12-20T10:41:25;4.60;99.90
42913;DHT22;50720;54.324;18.558;2022-12-20T10:43:58;4.60;99.90
42913;DHT22;50720;54.324;18.558;2022-12-20T10:46:37;4.60;99.90
42913;DHT22;50720;54.324;18.558;2022-12-20T10:49:31;4.70;99.90
42913;DHT22;50720;54.324;18.558;2022-12-20T10:52:03;4.70;99.90
42913;DHT22;50720;54.324;18.558;2022-12-20T10:54:36;4.70;99.90
42913;DHT22;50720;54.324;18.558;2022-12-20T10:57:16;4.70;99.90
42913;DHT22;50720;54.324;18.558;2022-12-20T10:59:51;4.80;99.90
42913;DHT22;50720;54.324;18.558;2022-12-20T11:02:26;4.80;99.90
42913;DHT22;50720;54.324;18.558;2022-12-20T11:05:20;4.90;99.90
42913;DHT22;50720;54.324;18.558;2022-12-20T11:07:54;5.00;99.90
42913;DHT22;50720;54.324;18.558;2022-12-20T11:10:46;5.00;99.90
42913;DHT22;50720;54.324;18.558;2022-12-20T11:13:22;5.00;99.90
42913;DHT22;50720;54.324;18.558;2022-12-20T11:15:54;5.00;99.90
42913;DHT22;50720;54.324;18.558;2022-12-20T11:18:37;5.10;99.90
42913;DHT22;50720;54.324;18.558;2022-12-20T11:21:17;5.00;99.90
42913;DHT22;50720;54.324;18.558;2022-12-20T11:24:02;5.10;99.90
42913;DHT22;50720;54.324;18.558;2022-12-20T11:26:44;5.10;99.90
42913;DHT22;50720;54.324;18.558;2022-12-20T11:32:25;5.10;99.90
42913;DHT22;50720;54.324;18.558;2022-12-20T11:35:04;5.20;99.90
42913;DHT22;50720;54.324;18.558;2022-12-20T11:37:43;5.20;99.90
42913;DHT22;50720;54.324;18.558;2022-12-20T11:40:28;5.20;99.90
42913;DHT22;50720;54.324;18.558;2022-12-20T11:46:10;5.20;99.90
42913;DHT22;50720;54.324;18.558;2022-12-20T11:48:58;5.30;99.90
42913;DHT22;50720;54.324;18.558;2022-12-20T11:51:34;5.30;99.90
42913;DHT22;50720;54.324;18.558;2022-12-20T11:54:10;5.30;99.90
42913;DHT22;50720;54.324;18.558;2022-12-20T11:56:43;5.30;99.90
42913;DHT22;50720;54.324;18.558;2022-12-20T11:59:19;5.20;99.90
42913;DHT22;50720;54.324;18.558;2022-12-20T12:01:54;5.20;99.90
42913;DHT22;50720;54.324;18.558;2022-12-20T12:04:28;5.20;99.90
42913;DHT22;50720;54.324;18.558;2022-12-20T12:07:03;5.10;99.90
42913;DHT22;50720;54.324;18.558;2022-12-20T12:09:37;5.00;99.90
42913;DHT22;50720;54.324;18.558;2022-12-20T12:12:13;5.00;99.90
42913;DHT22;50720;54.324;18.558;2022-12-20T12:14:51;5.00;99.90
42913;DHT22;50720;54.324;18.558;2022-12-20T12:17:27;5.00;99.90
42913;DHT22;50720;54.324;18.558;2022-12-20T12:20:13;4.90;99.90
42913;DHT22;50720;54.324;18.558;2022-12-20T12:22:46;5.00;99.90
42913;DHT22;50720;54.324;18.558;2022-12-20T12:25:18;4.90;99.90
42913;DHT22;50720;54.324;18.558;2022-12-20T12:27:48;4.90;99.90
42913;DHT22;50720;54.324;18.558;2022-12-20T12:30:19;4.90;99.90
42913;DHT22;50720;54.324;18.558;2022-12-20T12:32:53;4.90;99.90
42913;DHT22;50720;54.324;18.558;2022-12-20T12:35:46;4.90;99.90
42913;DHT22;50720;54.324;18.558;2022-12-20T12:42:03;4.90;99.90
42913;DHT22;50720;54.324;18.558;2022-12-20T12:44:40;4.90;99.90
42913;DHT22;50720;54.324;18.558;2022-12-20T12:47:15;5.00;99.90
42913;DHT22;50720;54.324;18.558;2022-12-20T12:49:48;5.10;99.90
42913;DHT22;50720;54.324;18.558;2022-12-20T12:52:42;5.10;99.90
42913;DHT22;50720;54.324;18.558;2022-12-20T12:55:41;5.10;99.90
42913;DHT22;50720;54.324;18.558;2022-12-20T12:58:29;5.20;99.90
42913;DHT22;50720;54.324;18.558;2022-12-20T13:01:02;5.20;99.90
42913;DHT22;50720;54.324;18.558;2022-12-20T13:03:45;5.20;99.90
42913;DHT22;50720;54.324;18.558;2022-12-20T13:07:03;5.30;99.90
42913;DHT22;50720;54.324;18.558;2022-12-20T13:09:52;5.30;99.90
42913;DHT22;50720;54.324;18.558;2022-12-20T13:12:56;5.30;99.90
42913;DHT22;50720;54.324;18.558;2022-12-20T13:18:35;5.30;99.90
42913;DHT22;50720;54.324;18.558;2022-12-20T13:21:31;5.30;99.90
42913;DHT22;50720;54.324;18.558;2022-12-20T13:24:52;5.30;99.90
42913;DHT22;50720;54.324;18.558;2022-12-20T13:27:32;5.30;99.90
42913;DHT22;50720;54.324;18.558;2022-12-20T13:30:26;5.30;99.90
42913;DHT22;50720;54.324;18.558;2022-12-20T13:33:19;5.30;99.90
42913;DHT22;50720;54.324;18.558;2022-12-20T13:36:00;5.40;99.90
42913;DHT22;50720;54.324;18.558;2022-12-20T13:39:02;5.40;99.90
42913;DHT22;50720;54.324;18.558;2022-12-20T13:41:35;5.40;99.90
42913;DHT22;50720;54.324;18.558;2022-12-20T13:44:41;5.40;99.90
42913;DHT22;50720;54.324;18.558;2022-12-20T13:47:28;5.40;99.90
42913;DHT22;50720;54.324;18.558;2022-12-20T13:50:00;5.40;99.90
42913;DHT22;50720;54.324;18.558;2022-12-20T13:52:31;5.40;99.90
42913;DHT22;50720;54.324;18.558;2022-12-20T13:55:14;5.40;99.90
42913;DHT22;50720;54.324;18.558;2022-12-20T13:57:44;5.40;99.90
42913;DHT22;50720;54.324;18.558;2022-12-20T14:00:16;5.40;99.90
42913;DHT22;50720;54.324;18.558;2022-12-20T14:02:46;5.40;99.90
42913;DHT22;50720;54.324;18.558;2022-12-20T14:05:18;5.40;99.90
42913;DHT22;50720;54.324;18.558;2022-12-20T14:07:53;5.40;99.90
42913;DHT22;50720;54.324;18.558;2022-12-20T14:10:28;5.40;99.90
42913;DHT22;50720;54.324;18.558;2022-12-20T14:12:58;5.40;99.90
42913;DHT22;50720;54.324;18.558;2022-12-20T14:15:30;5.40;99.90
42913;DHT22;50720;54.324;18.558;2022-12-20T14:18:04;5.40;99.90
42913;DHT22;50720;54.324;18.558;2022-12-20T14:20:35;5.50;99.90
42913;DHT22;50720;54.324;18.558;2022-12-20T14:23:11;5.40;99.90
42913;DHT22;50720;54.324;18.558;2022-12-20T14:25:46;5.40;99.90
42913;DHT22;50720;54.324;18.558;2022-12-20T14:28:24;5.50;99.90
42913;DHT22;50720;54.324;18.558;2022-12-20T14:30:57;5.50;99.90
42913;DHT22;50720;54.324;18.558;2022-12-20T14:33:32;5.50;99.90
42913;DHT22;50720;54.324;18.558;2022-12-20T14:36:15;5.50;99.90
42913;DHT22;50720;54.324;18.558;2022-12-20T14:38:47;5.50;99.90
42913;DHT22;50720;54.324;18.558;2022-12-20T14:41:33;5.60;99.90
42913;DHT22;50720;54.324;18.558;2022-12-20T14:44:14;5.60;99.90
42913;DHT22;50720;54.324;18.558;2022-12-20T14:46:48;5.60;99.90
42913;DHT22;50720;54.324;18.558;2022-12-20T14:49:24;5.50;99.90
42913;DHT22;50720;54.324;18.558;2022-12-20T14:52:05;5.60;99.90
42913;DHT22;50720;54.324;18.558;2022-12-20T14:54:42;5.50;99.90
42913;DHT22;50720;54.324;18.558;2022-12-20T14:57:43;5.50;99.90
42913;DHT22;50720;54.324;18.558;2022-12-20T15:00:20;5.50;99.90
42913;DHT22;50720;54.324;18.558;2022-12-20T15:02:56;5.50;99.90
42913;DHT22;50720;54.324;18.558;2022-12-20T15:05:46;5.60;99.90
42913;DHT22;50720;54.324;18.558;2022-12-20T15:08:18;5.50;99.90
42913;DHT22;50720;54.324;18.558;2022-12-20T15:10:58;5.50;99.90
42913;DHT22;50720;54.324;18.558;2022-12-20T15:13:35;5.60;99.90
42913;DHT22;50720;54.324;18.558;2022-12-20T15:16:11;5.70;99.90
42913;DHT22;50720;54.324;18.558;2022-12-20T15:18:42;5.70;99.90
42913;DHT22;50720;54.324;18.558;2022-12-20T15:21:14;5.70;99.90
42913;DHT22;50720;54.324;18.558;2022-12-20T15:23:46;5.70;99.90
42913;DHT22;50720;54.324;18.558;2022-12-20T15:26:17;5.80;99.90
42913;DHT22;50720;54.324;18.558;2022-12-20T15:28:48;5.80;99.90
42913;DHT22;50720;54.324;18.558;2022-12-20T15:31:20;5.80;99.90
42913;DHT22;50720;54.324;18.558;2022-12-20T15:33:59;5.90;99.90
42913;DHT22;50720;54.324;18.558;2022-12-20T15:36:29;5.80;99.90
42913;DHT22;50720;54.324;18.558;2022-12-20T15:39:00;5.80;99.90
42913;DHT22;50720;54.324;18.558;2022-12-20T15:41:42;5.80;99.90
42913;DHT22;50720;54.324;18.558;2022-12-20T15:44:15;5.90;99.90
42913;DHT22;50720;54.324;18.558;2022-12-20T15:46:46;5.80;99.90
42913;DHT22;50720;54.324;18.558;2022-12-20T15:49:16;5.80;99.90
42913;DHT22;50720;54.324;18.558;2022-12-20T15:51:48;5.80;99.90
42913;DHT22;50720;54.324;18.558;2022-12-20T15:54:22;5.80;99.90
42913;DHT22;50720;54.324;18.558;2022-12-20T15:56:56;5.70;99.90
42913;DHT22;50720;54.324;18.558;2022-12-20T15:59:27;5.80;99.90
42913;DHT22;50720;54.324;18.558;2022-12-20T16:02:21;5.70;99.90
42913;DHT22;50720;54.324;18.558;2022-12-20T16:04:51;5.70;99.90
42913;DHT22;50720;54.324;18.558;2022-12-20T16:07:22;5.70;99.90
42913;DHT22;50720;54.324;18.558;2022-12-20T16:09:51;5.70;99.90
42913;DHT22;50720;54.324;18.558;2022-12-20T16:12:23;5.70;99.90
42913;DHT22;50720;54.324;18.558;2022-12-20T16:14:55;5.70;99.90
42913;DHT22;50720;54.324;18.558;2022-12-20T16:17:24;5.70;99.90
42913;DHT22;50720;54.324;18.558;2022-12-20T16:19:54;5.70;99.90
42913;DHT22;50720;54.324;18.558;2022-12-20T16:22:23;5.70;99.90
42913;DHT22;50720;54.324;18.558;2022-12-20T16:24:53;5.70;99.90
42913;DHT22;50720;54.324;18.558;2022-12-20T16:27:23;5.60;99.90
42913;DHT22;50720;54.324;18.558;2022-12-20T16:29:54;5.60;99.90
42913;DHT22;50720;54.324;18.558;2022-12-20T16:32:24;5.60;99.90